Time;durP1;ratioP1;P1;durP2;ratioP2;P2;SDS_P1;SDS_P2;PMS_P1;PMS_P2;Temp;Humidity;BMP_temperature;BMP_pressure;BME280_temperature;BME280_humidity;BME280_pressure;Samples;Min_cycle;Max_cycle;Signal;HPM_P1;HPM_P2
2021/08/04 00:00:43;;;;;;;0.00;0.00;;;18.90;84.10;;;;;;5081275;28;20097;-89
2021/08/04 00:03:11;;;;;;;0.00;0.00;;;18.90;84.20;;;;;;5066324;28;20127;-90
2021/08/04 00:05:49;;;;;;;0.00;0.00;;;18.90;84.30;;;;;;5058232;28;20087;-90
2021/08/04 00:08:20;;;;;;;0.10;0.10;;;18.90;84.80;;;;;;5069020;28;20105;-90
2021/08/04 00:11:06;;;;;;;0.00;0.00;;;18.90;84.70;;;;;;5073491;28;20401;-90
2021/08/04 00:13:54;;;;;;;0.10;0.10;;;18.90;85.10;;;;;;5060158;28;20036;-90
2021/08/04 00:16:26;;;;;;;0.00;0.00;;;18.90;85.40;;;;;;5058766;28;20052;-90
2021/08/04 00:19:12;;;;;;;0.10;0.10;;;18.90;85.10;;;;;;5057662;28;20478;-90
2021/08/04 00:21:47;;;;;;;0.00;0.00;;;18.90;85.60;;;;;;5059686;28;20048;-90
2021/08/04 00:24:21;;;;;;;0.10;0.10;;;18.90;85.50;;;;;;5057742;28;20025;-90
2021/08/04 00:26:57;;;;;;;;;;;18.90;85.70;;;;;;5059038;28;20029;-90
2021/08/04 00:29:26;;;;;;;0.10;0.10;;;18.80;87.40;;;;;;5058514;28;19913;-89
2021/08/04 00:31:54;;;;;;;0.00;0.00;;;18.80;85.50;;;;;;5058166;28;20505;-90
2021/08/04 00:34:26;;;;;;;0.00;0.00;;;18.80;85.90;;;;;;5057615;28;20025;-90
2021/08/04 00:37:07;;;;;;;0.00;0.00;;;18.80;86.30;;;;;;5063682;28;20076;-90
2021/08/04 00:39:42;;;;;;;0.00;0.00;;;18.70;86.50;;;;;;5081285;28;20029;-90
2021/08/04 00:42:19;;;;;;;0.10;0.10;;;18.70;86.80;;;;;;5064128;28;20045;-90
2021/08/04 00:44:46;;;;;;;0.00;0.00;;;18.70;87.30;;;;;;5058003;28;20086;-90
2021/08/04 00:47:13;;;;;;;0.00;0.00;;;18.70;87.40;;;;;;5058616;28;20386;-90
2021/08/04 00:49:39;;;;;;;0.00;0.00;;;18.70;87.80;;;;;;5057886;28;20032;-90
2021/08/04 00:52:06;;;;;;;0.00;0.00;;;18.60;87.90;;;;;;5058607;28;20174;-90
2021/08/04 00:54:31;;;;;;;0.00;0.00;;;18.60;88.20;;;;;;5058995;28;20072;-90
2021/08/04 00:57:00;;;;;;;0.00;0.00;;;18.60;88.40;;;;;;5057613;28;20037;-90
2021/08/04 00:59:25;;;;;;;0.10;0.10;;;18.60;88.50;;;;;;5058813;28;20028;-90
2021/08/04 01:02:07;;;;;;;0.10;0.10;;;18.60;88.90;;;;;;5057004;28;20045;-89
2021/08/04 01:04:47;;;;;;;0.00;0.00;;;18.50;89.10;;;;;;5057003;28;20549;-90
2021/08/04 01:07:15;;;;;;;0.20;0.10;;;18.50;89.80;;;;;;5057491;28;20087;-90
2021/08/04 01:09:45;;;;;;;0.10;0.10;;;18.50;89.80;;;;;;5057385;28;20029;-90
2021/08/04 01:12:17;;;;;;;0.00;0.00;;;18.40;90.10;;;;;;5063181;28;20045;-90
2021/08/04 01:14:47;;;;;;;0.10;0.10;;;18.50;90.20;;;;;;5080020;28;20132;-90
2021/08/04 01:17:16;;;;;;;0.00;0.00;;;18.40;90.30;;;;;;5065113;28;20036;-90
2021/08/04 01:20:08;;;;;;;0.10;0.10;;;18.40;90.40;;;;;;5057630;28;20017;-90
2021/08/04 01:22:58;;;;;;;0.10;0.10;;;18.40;90.60;;;;;;5058679;28;20485;-90
2021/08/04 01:25:58;;;;;;;0.10;0.10;;;18.40;90.70;;;;;;5058575;28;20064;-90
2021/08/04 01:28:50;;;;;;;0.10;0.10;;;18.30;90.80;;;;;;5029294;28;20041;-90
2021/08/04 01:31:30;;;;;;;0.00;0.00;;;18.30;91.00;;;;;;5055482;28;20024;-90
2021/08/04 01:34:11;;;;;;;0.05;0.05;;;18.30;90.80;;;;;;5055897;28;20037;-90
2021/08/04 01:36:45;;;;;;;0.10;0.10;;;18.30;90.70;;;;;;5057048;28;20088;-90
2021/08/04 01:39:20;;;;;;;0.00;0.00;;;18.20;90.60;;;;;;5057045;28;20033;-90
2021/08/04 01:42:04;;;;;;;0.10;0.10;;;18.20;90.80;;;;;;5057167;28;20052;-89
2021/08/04 01:44:32;;;;;;;0.00;0.00;;;18.20;91.00;;;;;;5057260;28;20029;-90
2021/08/04 01:47:11;;;;;;;0.00;0.00;;;18.10;91.10;;;;;;5056517;28;20032;-90
2021/08/04 01:49:48;;;;;;;0.00;0.00;;;18.10;91.40;;;;;;5069150;28;20012;-90
2021/08/04 01:52:20;;;;;;;0.05;0.05;;;18.00;91.40;;;;;;5079106;28;20081;-90
2021/08/04 01:54:56;;;;;;;0.10;0.10;;;18.00;91.40;;;;;;5078607;28;20032;-89
2021/08/04 01:57:31;;;;;;;0.05;0.05;;;18.00;91.60;;;;;;5057004;28;20041;-90
2021/08/04 02:00:17;;;;;;;0.10;0.10;;;17.90;91.40;;;;;;5056431;28;20457;-90
2021/08/04 02:02:56;;;;;;;0.10;0.10;;;17.90;91.60;;;;;;5055334;28;20053;-90
2021/08/04 02:05:30;;;;;;;0.10;0.10;;;17.90;91.70;;;;;;5056366;28;20036;-89
2021/08/04 02:08:28;;;;;;;0.10;0.10;;;17.90;91.90;;;;;;5056545;28;20079;-88
2021/08/04 02:11:02;;;;;;;0.00;0.00;;;17.90;92.10;;;;;;5055484;28;20119;-89
2021/08/04 02:13:31;;;;;;;0.10;0.10;;;17.90;92.00;;;;;;5056266;28;20068;-89
2021/08/04 02:16:26;;;;;;;0.00;0.00;;;17.90;92.30;;;;;;5055529;28;20540;-89
2021/08/04 02:19:23;;;;;;;0.10;0.10;;;17.90;92.60;;;;;;5054785;28;20119;-89
2021/08/04 02:22:16;;;;;;;0.10;0.10;;;17.90;92.60;;;;;;5055988;28;20032;-89
2021/08/04 02:25:01;;;;;;;0.00;0.00;;;17.80;92.40;;;;;;5032745;28;20048;-89
2021/08/04 02:27:44;;;;;;;0.03;0.03;;;17.80;93.00;;;;;;5055962;28;20486;-90
2021/08/04 02:30:13;;;;;;;0.00;0.00;;;17.80;92.50;;;;;;5066566;28;20024;-89
2021/08/04 02:32:45;;;;;;;0.00;0.00;;;17.80;92.60;;;;;;5078574;28;20036;-89
2021/08/04 02:35:15;;;;;;;0.00;0.00;;;17.80;92.70;;;;;;5060173;28;20418;-89
2021/08/04 02:37:47;;;;;;;0.10;0.10;;;17.80;92.80;;;;;;5056289;28;20040;-89
2021/08/04 02:40:24;;;;;;;0.00;0.00;;;17.80;93.00;;;;;;5055896;28;20021;-89
2021/08/04 02:42:54;;;;;;;0.10;0.10;;;17.80;93.30;;;;;;5055472;28;20061;-89
2021/08/04 02:45:23;;;;;;;0.03;0.03;;;17.80;93.30;;;;;;5055338;28;20029;-89
2021/08/04 02:51:29;;;;;;;0.10;0.10;;;17.80;93.40;;;;;;5057056;28;20059;-89
2021/08/04 02:54:12;;;;;;;0.10;0.10;;;17.90;93.70;;;;;;5024931;28;20053;-89
2021/08/04 02:56:47;;;;;;;0.08;0.08;;;17.90;93.70;;;;;;5056049;28;20021;-89
2021/08/04 02:59:13;;;;;;;0.00;0.00;;;17.90;93.80;;;;;;5055756;28;20033;-89
2021/08/04 03:01:44;;;;;;;0.05;0.05;;;17.90;93.70;;;;;;5054244;28;20048;-89
2021/08/04 03:04:25;;;;;;;0.00;0.00;;;18.00;93.60;;;;;;5055750;28;20120;-89
2021/08/04 03:07:02;;;;;;;0.10;0.10;;;18.00;93.50;;;;;;5074992;28;20013;-89
2021/08/04 03:09:40;;;;;;;0.10;0.10;;;18.10;93.60;;;;;;5067665;28;20086;-90
2021/08/04 03:12:09;;;;;;;0.10;0.10;;;18.10;93.60;;;;;;5055392;28;20501;-90
2021/08/04 03:14:35;;;;;;;0.00;0.00;;;18.20;93.50;;;;;;5053590;28;20044;-88
2021/08/04 03:17:01;;;;;;;0.00;0.00;;;18.20;93.50;;;;;;5052820;28;20467;-87
2021/08/04 03:19:26;;;;;;;0.10;0.10;;;18.20;93.40;;;;;;5053700;28;20025;-88
2021/08/04 03:21:52;;;;;;;0.03;0.03;;;18.30;93.50;;;;;;5055011;28;20085;-87
2021/08/04 03:24:18;;;;;;;0.00;0.00;;;18.40;93.40;;;;;;5052159;28;20032;-88
2021/08/04 03:26:43;;;;;;;0.10;0.10;;;18.50;93.50;;;;;;5052694;28;20090;-87
2021/08/04 03:29:09;;;;;;;0.00;0.00;;;18.60;93.00;;;;;;5052692;28;20091;-88
2021/08/04 03:31:35;;;;;;;0.00;0.00;;;18.70;92.80;;;;;;5052638;28;20118;-87
2021/08/04 03:34:01;;;;;;;0.00;0.00;;;18.80;92.60;;;;;;5052665;28;20025;-87
2021/08/04 03:36:28;;;;;;;0.00;0.00;;;18.80;92.40;;;;;;5053332;28;20029;-87
2021/08/04 03:38:54;;;;;;;0.00;0.00;;;18.90;92.20;;;;;;5055402;28;20087;-87
2021/08/04 03:41:21;;;;;;;0.10;0.10;;;19.00;92.20;;;;;;5056949;28;20095;-87
2021/08/04 03:43:46;;;;;;;0.00;0.00;;;19.10;92.00;;;;;;5055724;28;20385;-87
2021/08/04 03:46:12;;;;;;;0.03;0.03;;;19.20;91.90;;;;;;5067556;28;20036;-87
2021/08/04 03:48:38;;;;;;;0.00;0.00;;;19.20;91.60;;;;;;5075490;28;20040;-87
2021/08/04 03:51:04;;;;;;;0.00;0.00;;;19.40;91.40;;;;;;5055893;28;20037;-87
2021/08/04 03:53:30;;;;;;;0.00;0.00;;;19.50;91.20;;;;;;5056540;28;20014;-87
2021/08/04 03:55:56;;;;;;;0.10;0.10;;;19.60;91.00;;;;;;5064077;28;20056;-88
2021/08/04 03:58:21;;;;;;;0.00;0.00;;;19.80;90.80;;;;;;5075845;28;20025;-88
2021/08/04 04:00:47;;;;;;;0.00;0.00;;;19.90;90.60;;;;;;5061388;28;20547;-87
2021/08/04 04:03:13;;;;;;;0.00;0.00;;;20.00;90.30;;;;;;5057265;28;20041;-87
2021/08/04 04:05:39;;;;;;;0.00;0.00;;;20.10;90.00;;;;;;5059254;28;20029;-87
2021/08/04 04:08:04;;;;;;;0.00;0.00;;;20.40;89.20;;;;;;5057550;28;20502;-87
2021/08/04 04:10:30;;;;;;;0.10;0.10;;;20.50;88.40;;;;;;5058010;28;20036;-87
2021/08/04 04:12:56;;;;;;;0.10;0.10;;;20.60;87.60;;;;;;5058272;28;20029;-87
2021/08/04 04:15:22;;;;;;;0.00;0.00;;;20.80;87.20;;;;;;5059253;28;20029;-88
2021/08/04 04:17:47;;;;;;;0.00;0.00;;;20.90;86.40;;;;;;5059496;28;20482;-88
2021/08/04 04:20:14;;;;;;;0.00;0.00;;;21.00;85.80;;;;;;5058905;28;20055;-87
2021/08/04 04:22:44;;;;;;;0.00;0.00;;;21.10;85.30;;;;;;5061021;28;20037;-87
2021/08/04 04:25:11;;;;;;;0.00;0.00;;;21.20;84.60;;;;;;5062377;28;20025;-87
2021/08/04 04:27:37;;;;;;;0.03;0.03;;;21.40;84.10;;;;;;5079480;28;20122;-87
2021/08/04 04:30:03;;;;;;;0.00;0.00;;;21.50;83.60;;;;;;5062146;28;20539;-88
2021/08/04 04:32:29;;;;;;;0.00;0.00;;;21.60;83.00;;;;;;5055583;28;20541;-88
2021/08/04 04:34:54;;;;;;;0.10;0.10;;;21.70;82.30;;;;;;5057664;28;20029;-88
2021/08/04 04:37:20;;;;;;;0.00;0.00;;;21.80;82.00;;;;;;5058579;28;20026;-87
2021/08/04 04:39:46;;;;;;;0.00;0.00;;;22.00;81.60;;;;;;5057926;28;20021;-87
2021/08/04 04:42:12;;;;;;;0.00;0.00;;;22.10;81.40;;;;;;5057300;28;20064;-87
2021/08/04 04:44:37;;;;;;;0.00;0.00;;;22.30;81.30;;;;;;5059777;28;20027;-88
2021/08/04 04:47:03;;;;;;;0.00;0.00;;;22.40;81.10;;;;;;5057587;28;20029;-87
2021/08/04 04:49:29;;;;;;;0.00;0.00;;;22.60;80.90;;;;;;5058438;28;20026;-87
2021/08/04 04:51:55;;;;;;;0.10;0.10;;;22.80;80.60;;;;;;5058578;28;20147;-87
2021/08/04 04:54:20;;;;;;;0.00;0.00;;;22.90;80.50;;;;;;5058153;28;20029;-88
2021/08/04 04:56:46;;;;;;;0.00;0.00;;;23.20;81.00;;;;;;5057993;28;20029;-88
2021/08/04 04:59:12;;;;;;;0.00;0.00;;;23.60;81.20;;;;;;5072254;28;20025;-86
2021/08/04 05:01:38;;;;;;;0.00;0.00;;;24.00;81.10;;;;;;5071001;28;20063;-89
2021/08/04 05:04:04;;;;;;;0.00;0.00;;;24.40;80.10;;;;;;5079291;28;20021;-89
2021/08/04 05:06:30;;;;;;;0.00;0.00;;;24.80;79.10;;;;;;5064523;28;20118;-88
2021/08/04 05:08:57;;;;;;;0.00;0.00;;;25.30;78.10;;;;;;5062784;28;20029;-87
2021/08/04 05:11:22;;;;;;;0.00;0.00;;;25.60;76.80;;;;;;5061315;28;20039;-88
2021/08/04 05:13:48;;;;;;;0.00;0.00;;;26.00;76.90;;;;;;5065396;28;20093;-88
2021/08/04 05:16:14;;;;;;;0.00;0.00;;;26.30;73.80;;;;;;5063342;28;20040;-88
2021/08/04 05:18:40;;;;;;;0.00;0.00;;;26.50;73.60;;;;;;5065150;28;20028;-88
2021/08/04 05:21:06;;;;;;;0.00;0.00;;;26.90;73.10;;;;;;5063908;28;20474;-89
2021/08/04 05:23:32;;;;;;;0.00;0.00;;;27.20;71.20;;;;;;5064639;28;20064;-89
2021/08/04 05:25:58;;;;;;;0.00;0.00;;;27.30;69.70;;;;;;5065820;28;20092;-88
2021/08/04 05:28:24;;;;;;;0.00;0.00;;;27.60;69.70;;;;;;5066214;28;20123;-88
2021/08/04 05:30:50;;;;;;;0.00;0.00;;;27.90;69.20;;;;;;5062279;28;20442;-87
2021/08/04 05:33:15;;;;;;;0.00;0.00;;;28.30;67.20;;;;;;5066062;28;20189;-88
2021/08/04 05:35:42;;;;;;;0.00;0.00;;;28.60;67.00;;;;;;5068164;28;20029;-89
2021/08/04 05:38:07;;;;;;;0.00;0.00;;;29.00;65.50;;;;;;5067667;28;20040;-89
2021/08/04 05:40:33;;;;;;;0.00;0.00;;;29.20;64.70;;;;;;5065988;28;20056;-89
2021/08/04 05:42:59;;;;;;;0.00;0.00;;;29.50;62.90;;;;;;5077981;28;20037;-88
2021/08/04 05:45:25;;;;;;;0.00;0.00;;;29.60;62.30;;;;;;5070989;28;20119;-89
2021/08/04 05:47:51;;;;;;;0.00;0.00;;;29.90;62.10;;;;;;5058112;28;20025;-88
2021/08/04 05:50:17;;;;;;;0.00;0.00;;;30.10;60.90;;;;;;5063891;28;20031;-88
2021/08/04 05:52:43;;;;;;;0.00;0.00;;;30.40;60.30;;;;;;5062321;28;20291;-87
2021/08/04 05:55:09;;;;;;;0.00;0.00;;;30.60;60.40;;;;;;5064639;28;20025;-88
2021/08/04 05:57:35;;;;;;;0.00;0.00;;;30.80;59.40;;;;;;5066362;28;20033;-89
2021/08/04 06:00:00;;;;;;;0.00;0.00;;;31.00;58.70;;;;;;5061718;28;20071;-89
2021/08/04 06:02:26;;;;;;;0.00;0.00;;;31.30;57.90;;;;;;5060997;28;20044;-88
2021/08/04 06:04:52;;;;;;;0.00;0.00;;;31.60;57.50;;;;;;5070068;28;20086;-89
2021/08/04 06:07:18;;;;;;;0.00;0.00;;;32.00;56.90;;;;;;5065970;28;20071;-88
2021/08/04 06:09:43;;;;;;;0.00;0.00;;;32.50;55.80;;;;;;5066417;28;20223;-88
2021/08/04 06:12:09;;;;;;;0.00;0.00;;;32.90;54.60;;;;;;5061875;28;20485;-88
2021/08/04 06:14:36;;;;;;;0.00;0.00;;;33.20;53.60;;;;;;5058886;28;20021;-90
2021/08/04 06:17:02;;;;;;;0.00;0.00;;;33.50;53.50;;;;;;5061418;28;20040;-90
2021/08/04 06:19:27;;;;;;;0.00;0.00;;;33.50;52.80;;;;;;5078118;28;20017;-89
2021/08/04 06:21:54;;;;;;;0.00;0.00;;;33.50;52.40;;;;;;5070960;28;20048;-88
2021/08/04 06:24:20;;;;;;;0.00;0.00;;;33.60;52.30;;;;;;5060816;28;20021;-89
2021/08/04 06:26:46;;;;;;;0.00;0.00;;;33.90;52.10;;;;;;5055277;28;20033;-90
2021/08/04 06:29:12;;;;;;;0.00;0.00;;;34.20;51.00;;;;;;5056306;28;20374;-87
2021/08/04 06:31:37;;;;;;;0.00;0.00;;;34.10;50.70;;;;;;5056545;28;20033;-87
2021/08/04 06:34:03;;;;;;;0.00;0.00;;;34.20;50.40;;;;;;5064684;28;20021;-87
2021/08/04 06:36:29;;;;;;;0.00;0.00;;;34.20;50.00;;;;;;5071356;28;20037;-87
2021/08/04 06:38:55;;;;;;;0.00;0.00;;;34.50;50.00;;;;;;5057153;28;20021;-87
2021/08/04 06:41:20;;;;;;;0.00;0.00;;;34.90;49.60;;;;;;5056590;28;20037;-88
2021/08/04 06:43:46;;;;;;;0.00;0.00;;;35.20;48.70;;;;;;5056006;28;20025;-88
2021/08/04 06:46:13;;;;;;;0.00;0.00;;;35.40;47.90;;;;;;5059800;28;20083;-88
2021/08/04 06:48:39;;;;;;;0.00;0.00;;;35.50;47.90;;;;;;5057401;28;20017;-89
2021/08/04 06:51:06;;;;;;;0.00;0.00;;;35.60;47.40;;;;;;5055207;28;20065;-89
2021/08/04 06:53:39;;;;;;;0.00;0.00;;;35.90;46.90;;;;;;5056019;28;20389;-88
2021/08/04 06:56:07;;;;;;;0.00;0.00;;;36.20;45.70;;;;;;5055641;28;20029;-88
2021/08/04 06:58:36;;;;;;;0.00;0.00;;;36.60;46.40;;;;;;5071792;28;20008;-89
2021/08/04 07:01:04;;;;;;;0.00;0.00;;;36.90;46.40;;;;;;5070697;28;20535;-88
2021/08/04 07:03:31;;;;;;;0.00;0.00;;;36.70;43.10;;;;;;5056327;28;20041;-90
2021/08/04 07:06:00;;;;;;;0.00;0.00;;;36.00;43.20;;;;;;5060951;28;20029;-88
2021/08/04 07:08:29;;;;;;;0.00;0.00;;;35.50;43.60;;;;;;5057873;28;20518;-88
2021/08/04 07:11:08;;;;;;;0.00;0.00;;;35.60;43.20;;;;;;5100080;22;20058;-90
2021/08/04 07:13:46;;;;;;;0.00;0.00;;;35.30;43.30;;;;;;5023420;28;20475;-89
2021/08/04 07:16:18;;;;;;;0.00;0.00;;;35.00;43.80;;;;;;5040678;28;20057;-89
2021/08/04 07:18:47;;;;;;;0.00;0.00;;;35.00;44.50;;;;;;5036709;28;20067;-89
2021/08/04 07:21:18;;;;;;;0.00;0.00;;;35.30;44.10;;;;;;5036299;28;20065;-90
2021/08/04 07:23:46;;;;;;;0.00;0.00;;;35.60;44.10;;;;;;5018443;28;20045;-89
2021/08/04 07:26:13;;;;;;;0.00;0.00;;;35.80;43.80;;;;;;4997047;28;20087;-88
2021/08/04 07:28:39;;;;;;;0.10;0.10;;;36.20;43.40;;;;;;4999050;28;20091;-89
2021/08/04 07:31:09;;;;;;;0.00;0.00;;;36.20;43.10;;;;;;5002640;28;20037;-90
2021/08/04 07:33:35;;;;;;;0.00;0.00;;;36.30;42.70;;;;;;5000211;28;20084;-88
2021/08/04 07:36:04;;;;;;;0.00;0.00;;;36.20;41.90;;;;;;5001449;28;20128;-90
2021/08/04 07:38:42;;;;;;;0.00;0.00;;;35.90;42.30;;;;;;5007772;28;20011;-89
2021/08/04 07:41:11;;;;;;;0.00;0.00;;;35.80;42.90;;;;;;5023552;28;20049;-89
2021/08/04 07:43:49;;;;;;;0.10;0.10;;;36.10;42.50;;;;;;5011154;28;20030;-90
2021/08/04 07:46:18;;;;;;;0.00;0.00;;;36.30;42.20;;;;;;5001122;28;20475;-90
2021/08/04 07:48:47;;;;;;;0.10;0.10;;;36.70;41.80;;;;;;5026248;28;20509;-88
2021/08/04 07:51:17;;;;;;;0.10;0.10;;;37.00;41.70;;;;;;5040352;28;20037;-90
2021/08/04 07:53:46;;;;;;;0.00;0.00;;;37.50;41.40;;;;;;5039615;28;20037;-89
2021/08/04 07:56:23;;;;;;;0.00;0.00;;;37.80;40.70;;;;;;5036454;28;20036;-90
2021/08/04 07:58:50;;;;;;;0.00;0.00;;;37.90;40.30;;;;;;5040825;28;20033;-89
2021/08/04 08:01:22;;;;;;;0.00;0.00;;;38.00;40.70;;;;;;5039713;28;20383;-89
2021/08/04 08:03:48;;;;;;;0.00;0.00;;;38.20;40.00;;;;;;5058940;28;20022;-89
2021/08/04 08:06:16;;;;;;;0.00;0.00;;;38.20;39.70;;;;;;5046040;28;20121;-86
2021/08/04 08:08:44;;;;;;;0.10;0.10;;;37.80;39.70;;;;;;5053198;28;20045;-88
2021/08/04 08:11:15;;;;;;;0.10;0.10;;;37.20;40.50;;;;;;5041845;28;20037;-89
2021/08/04 08:13:45;;;;;;;0.03;0.03;;;37.00;39.90;;;;;;5035521;28;20527;-89
2021/08/04 08:16:18;;;;;;;0.00;0.00;;;36.30;40.10;;;;;;5051623;28;20056;-89
2021/08/04 08:18:46;;;;;;;0.10;0.10;;;35.90;41.10;;;;;;5057209;28;20467;-88
2021/08/04 08:21:30;;;;;;;0.10;0.10;;;36.00;41.70;;;;;;5039976;28;20048;-89
2021/08/04 08:24:01;;;;;;;0.00;0.00;;;36.70;41.70;;;;;;5037775;28;20034;-89
2021/08/04 08:26:36;;;;;;;0.10;0.10;;;37.30;41.50;;;;;;5037790;28;20421;-90
2021/08/04 08:29:10;;;;;;;0.00;0.00;;;37.80;40.70;;;;;;5039730;28;20018;-89
2021/08/04 08:31:52;;;;;;;0.00;0.00;;;37.90;40.80;;;;;;5040617;28;20072;-90
2021/08/04 08:34:38;;;;;;;0.00;0.00;;;37.80;40.80;;;;;;5040794;28;20085;-89
2021/08/04 08:37:06;;;;;;;0.00;0.00;;;37.30;40.40;;;;;;5047563;28;20025;-88
2021/08/04 09:49:26;;;;;;;0.05;0.05;;;33.30;44.40;;;;;;5163495;22;20049;-88
2021/08/04 09:52:07;;;;;;;0.00;0.00;;;34.40;44.30;;;;;;5034850;28;20018;-91
2021/08/04 09:54:42;;;;;;;0.10;0.10;;;35.70;43.10;;;;;;5019024;28;20029;-88
2021/08/04 09:57:08;;;;;;;0.10;0.10;;;37.00;42.00;;;;;;5018955;28;20056;-89
2021/08/04 09:59:56;;;;;;;0.00;0.00;;;37.90;41.20;;;;;;5020397;28;20540;-87
2021/08/04 10:02:31;;;;;;;0.00;0.00;;;38.50;39.50;;;;;;5017612;28;20115;-89
2021/08/04 10:05:26;;;;;;;0.10;0.10;;;38.30;39.30;;;;;;5018080;28;20164;-89
2021/08/04 10:08:11;;;;;;;0.10;0.10;;;38.70;39.20;;;;;;5017875;28;20364;-91
2021/08/04 10:10:42;;;;;;;0.10;0.10;;;39.30;39.00;;;;;;5035243;28;20087;-92
2021/08/04 10:13:19;;;;;;;0.10;0.10;;;39.40;38.60;;;;;;5017871;28;20026;-87
2021/08/04 10:15:51;;;;;;;0.10;0.10;;;39.10;37.90;;;;;;5020083;28;20059;-89
2021/08/04 10:18:25;;;;;;;0.00;0.00;;;39.30;38.20;;;;;;5016142;28;20060;-89
2021/08/04 10:21:00;;;;;;;0.10;0.10;;;39.90;38.10;;;;;;5017428;28;20033;-90
2021/08/04 10:23:28;;;;;;;0.10;0.10;;;40.80;37.60;;;;;;5017187;28;20125;-89
2021/08/04 10:26:12;;;;;;;0.10;0.10;;;41.60;37.40;;;;;;5040310;28;20024;-90
2021/08/04 10:28:39;;;;;;;0.10;0.10;;;41.80;36.50;;;;;;5028510;28;20029;-90
2021/08/04 10:31:05;;;;;;;0.00;0.00;;;41.40;35.80;;;;;;5018302;28;20061;-90
2021/08/04 10:33:34;;;;;;;0.10;0.10;;;41.00;36.30;;;;;;5018717;28;20025;-91
2021/08/04 10:36:07;;;;;;;0.10;0.10;;;40.80;36.30;;;;;;5016723;28;20025;-91
2021/08/04 10:38:35;;;;;;;0.00;0.00;;;40.60;36.00;;;;;;5017947;28;20026;-90
2021/08/04 10:41:26;;;;;;;0.00;0.00;;;40.40;36.20;;;;;;5019317;28;20033;-89
2021/08/04 10:43:53;;;;;;;0.10;0.10;;;40.00;35.70;;;;;;5019521;28;20048;-89
2021/08/04 10:46:34;;;;;;;0.10;0.10;;;40.00;36.60;;;;;;5018764;28;20469;-89
2021/08/04 10:49:09;;;;;;;0.00;0.00;;;40.40;36.00;;;;;;5019715;28;20041;-90
2021/08/04 10:51:59;;;;;;;0.10;0.10;;;40.90;35.60;;;;;;5016554;28;20037;-89
2021/08/04 10:54:25;;;;;;;0.10;0.10;;;41.10;35.50;;;;;;5021547;28;20049;-89
2021/08/04 10:56:50;;;;;;;0.00;0.00;;;40.90;35.50;;;;;;5020166;28;20036;-89
2021/08/04 10:59:33;;;;;;;0.00;0.00;;;40.60;35.50;;;;;;5018565;28;20120;-89
2021/08/04 11:02:02;;;;;;;0.00;0.00;;;40.10;35.20;;;;;;5019234;28;20037;-90
2021/08/04 11:04:28;;;;;;;0.00;0.00;;;39.30;36.10;;;;;;5028341;28;20036;-89
2021/08/04 11:07:09;;;;;;;0.00;0.00;;;38.30;36.60;;;;;;5041159;28;20037;-89
2021/08/04 11:09:53;;;;;;;0.00;0.00;;;37.30;37.20;;;;;;5018983;28;20137;-89
2021/08/04 11:12:20;;;;;;;0.00;0.00;;;36.60;37.80;;;;;;5017140;28;20029;-88
2021/08/04 11:14:56;;;;;;;0.00;0.00;;;35.80;38.20;;;;;;5016829;28;20034;-89
2021/08/04 11:17:23;;;;;;;0.00;0.00;;;35.20;38.60;;;;;;5017984;28;20116;-88
2021/08/04 11:20:08;;;;;;;0.00;0.00;;;34.60;39.20;;;;;;5017500;28;20394;-87
2021/08/04 11:22:40;;;;;;;0.00;0.00;;;34.10;39.70;;;;;;5017296;28;20124;-89
2021/08/04 11:25:08;;;;;;;0.00;0.00;;;33.80;40.00;;;;;;5021492;28;20037;-88
2021/08/04 11:27:45;;;;;;;0.00;0.00;;;33.60;40.30;;;;;;5039571;28;20025;-88
2021/08/04 11:30:12;;;;;;;0.00;0.00;;;33.50;40.60;;;;;;5028688;28;20068;-90
2021/08/04 11:32:38;;;;;;;0.00;0.00;;;33.30;40.90;;;;;;5021879;28;20024;-90
2021/08/04 11:35:18;;;;;;;0.00;0.00;;;33.20;41.30;;;;;;5021850;28;20034;-90
2021/08/04 11:37:45;;;;;;;0.00;0.00;;;32.80;41.90;;;;;;5020353;28;20025;-89
2021/08/04 11:40:12;;;;;;;0.00;0.00;;;32.50;41.80;;;;;;5023176;28;20101;-89
2021/08/04 11:42:38;;;;;;;0.00;0.00;;;32.40;42.20;;;;;;5040875;28;20085;-90
2021/08/04 11:45:10;;;;;;;0.00;0.00;;;32.50;42.50;;;;;;5031078;28;20116;-90
2021/08/04 11:47:36;;;;;;;0.00;0.00;;;32.70;42.60;;;;;;5037813;28;20072;-91
2021/08/04 11:50:08;;;;;;;0.00;0.00;;;33.10;42.40;;;;;;5021503;28;20167;-92
2021/08/04 11:52:35;;;;;;;0.00;0.00;;;33.20;42.10;;;;;;5020005;28;20032;-90
2021/08/04 11:55:07;;;;;;;0.00;0.00;;;33.30;42.10;;;;;;5018428;28;20029;-89
2021/08/04 11:57:34;;;;;;;0.00;0.00;;;33.20;41.90;;;;;;5020701;28;20441;-88
2021/08/04 12:00:06;;;;;;;0.00;0.00;;;33.10;42.10;;;;;;5018589;28;20040;-89
2021/08/04 12:02:34;;;;;;;0.00;0.00;;;33.00;42.40;;;;;;5023708;28;20064;-90
2021/08/04 12:05:00;;;;;;;0.00;0.00;;;32.90;42.50;;;;;;5036815;28;20029;-88
2021/08/04 12:07:29;;;;;;;0.00;0.00;;;32.70;42.80;;;;;;5018746;28;20533;-89
2021/08/04 12:10:15;;;;;;;0.00;0.00;;;32.10;43.30;;;;;;5019236;28;20382;-90
2021/08/04 12:12:43;;;;;;;0.00;0.00;;;31.80;44.10;;;;;;5015583;28;20032;-89
2021/08/04 12:15:23;;;;;;;0.00;0.00;;;31.80;43.70;;;;;;5018938;28;20061;-90
2021/08/04 12:17:56;;;;;;;0.08;0.08;;;32.10;44.00;;;;;;5022887;28;20064;-89
2021/08/04 12:20:24;;;;;;;0.00;0.00;;;32.50;43.90;;;;;;5027319;28;20009;-89
2021/08/04 12:23:00;;;;;;;0.00;0.00;;;33.20;43.50;;;;;;5044278;28;20041;-89
2021/08/04 12:25:26;;;;;;;0.00;0.00;;;33.90;43.80;;;;;;5028967;28;20041;-89
2021/08/04 12:27:54;;;;;;;0.00;0.00;;;34.30;42.50;;;;;;5021791;28;20026;-91
2021/08/04 12:30:22;;;;;;;0.00;0.00;;;34.70;42.10;;;;;;5023759;28;20399;-90
2021/08/04 12:32:51;;;;;;;0.00;0.00;;;34.90;41.60;;;;;;5020112;28;20028;-89
2021/08/04 12:35:46;;;;;;;0.00;0.00;;;34.90;41.40;;;;;;5021008;28;20037;-88
2021/08/04 12:38:22;;;;;;;0.00;0.00;;;34.70;41.70;;;;;;5007461;28;20057;-90
2021/08/04 12:40:54;;;;;;;0.00;0.00;;;34.40;41.90;;;;;;5018508;28;20037;-89
2021/08/04 12:43:27;;;;;;;0.00;0.00;;;34.10;42.00;;;;;;5022619;28;20479;-89
2021/08/04 12:45:55;;;;;;;0.00;0.00;;;33.60;42.60;;;;;;5021327;28;20061;-89
2021/08/04 12:48:34;;;;;;;0.00;0.00;;;33.50;42.80;;;;;;5020183;28;20326;-89
2021/08/04 12:51:00;;;;;;;0.00;0.00;;;33.30;43.00;;;;;;5020560;28;20025;-89
2021/08/04 12:53:32;;;;;;;0.00;0.00;;;32.90;43.20;;;;;;5019213;28;20029;-90
2021/08/04 12:56:04;;;;;;;0.00;0.00;;;32.70;43.60;;;;;;5020906;28;20036;-89
2021/08/04 12:58:50;;;;;;;0.00;0.00;;;32.50;44.10;;;;;;5019213;28;20155;-89
2021/08/04 13:01:20;;;;;;;0.00;0.00;;;32.20;44.30;;;;;;5032652;28;20022;-88
2021/08/04 13:03:47;;;;;;;0.00;0.00;;;32.10;44.50;;;;;;5040948;28;20017;-87
2021/08/04 13:06:13;;;;;;;0.00;0.00;;;32.00;44.50;;;;;;5005438;28;20030;-88
2021/08/04 13:08:38;;;;;;;0.00;0.00;;;32.10;44.80;;;;;;5021177;28;20029;-89
2021/08/04 13:11:05;;;;;;;0.00;0.00;;;32.30;45.00;;;;;;5017652;28;20033;-88
2021/08/04 13:14:03;;;;;;;0.00;0.00;;;32.40;44.60;;;;;;5018206;28;20021;-90
2021/08/04 13:16:30;;;;;;;0.00;0.00;;;32.40;44.60;;;;;;5010289;28;20037;-90
2021/08/04 13:18:55;;;;;;;0.00;0.00;;;32.20;44.80;;;;;;5016700;28;20071;-89
2021/08/04 13:21:21;;;;;;;0.00;0.00;;;31.90;45.00;;;;;;5017572;28;20113;-88
2021/08/04 13:23:47;;;;;;;0.00;0.00;;;31.60;45.20;;;;;;5021460;28;20048;-89
2021/08/04 13:26:14;;;;;;;0.00;0.00;;;31.40;45.70;;;;;;5019006;28;20033;-88
2021/08/04 13:28:41;;;;;;;0.00;0.00;;;31.20;46.00;;;;;;5019535;28;20029;-89
2021/08/04 13:31:13;;;;;;;0.00;0.00;;;30.90;46.30;;;;;;5019000;28;20063;-87
2021/08/04 13:33:40;;;;;;;0.00;0.00;;;30.70;46.50;;;;;;5018897;28;20037;-88
2021/08/04 13:36:07;;;;;;;0.00;0.00;;;30.60;46.60;;;;;;5017006;28;20029;-89
2021/08/04 13:38:32;;;;;;;0.00;0.00;;;30.60;46.70;;;;;;5036829;28;20033;-87
2021/08/04 13:40:58;;;;;;;0.00;0.00;;;30.30;46.70;;;;;;5033259;28;20033;-85
2021/08/04 13:43:25;;;;;;;0.00;0.00;;;30.30;47.00;;;;;;5016713;28;20029;-86
2021/08/04 13:45:51;;;;;;;0.00;0.00;;;30.30;47.10;;;;;;5017067;28;20116;-88
2021/08/04 13:48:17;;;;;;;0.00;0.00;;;30.20;47.20;;;;;;5017800;28;20126;-88
2021/08/04 13:50:44;;;;;;;0.00;0.00;;;30.20;47.40;;;;;;5034861;28;20027;-87
2021/08/04 13:53:10;;;;;;;0.00;0.00;;;30.10;47.50;;;;;;5016110;28;20034;-88
2021/08/04 13:55:37;;;;;;;0.00;0.00;;;30.20;47.70;;;;;;5033668;28;20041;-88
2021/08/04 13:58:03;;;;;;;0.00;0.00;;;30.20;47.70;;;;;;5016384;28;20079;-88
2021/08/04 14:00:31;;;;;;;0.00;0.00;;;30.20;47.80;;;;;;5015948;28;20068;-87
2021/08/04 14:03:19;;;;;;;0.00;0.00;;;30.20;48.00;;;;;;5015492;28;20135;-88
2021/08/04 14:05:45;;;;;;;0.00;0.00;;;30.10;48.10;;;;;;5017368;28;20478;-87
2021/08/04 14:08:13;;;;;;;0.00;0.00;;;30.10;48.00;;;;;;5015879;28;20076;-88
2021/08/04 14:10:39;;;;;;;0.00;0.00;;;30.10;48.00;;;;;;5015047;28;20041;-88
2021/08/04 14:13:07;;;;;;;0.00;0.00;;;30.10;48.10;;;;;;5014595;28;20032;-87
2021/08/04 14:15:36;;;;;;;0.00;0.00;;;30.10;48.30;;;;;;5015322;28;20021;-88
2021/08/04 14:18:05;;;;;;;0.00;0.00;;;29.90;48.50;;;;;;5034865;28;20022;-88
2021/08/04 14:20:32;;;;;;;0.00;0.00;;;29.80;48.80;;;;;;5032671;28;20064;-87